createdAt,value
2022-10-11T00:02:06.369Z,101621.97
2022-10-11T00:04:35.834Z,101623.75
2022-10-11T00:07:05.230Z,101629.38
2022-10-11T00:09:34.774Z,101635.41
2022-10-11T00:12:04.530Z,101635.97
2022-10-11T00:14:34.037Z,101647.03
2022-10-11T00:17:07.798Z,101647.03
2022-10-11T00:19:37.325Z,101652.34
2022-10-11T00:22:06.725Z,101666.22
2022-10-11T00:24:36.186Z,101663.97
2022-10-11T00:27:05.601Z,101672.69
2022-10-11T00:29:34.993Z,101663.97
2022-10-11T00:32:07.468Z,101675.94
2022-10-11T00:34:36.844Z,101678.50
2022-10-11T00:37:06.287Z,101682.28
2022-10-11T00:39:35.705Z,101679.72
2022-10-11T00:42:05.213Z,101681.31
2022-10-11T00:44:35.650Z,101678.50
2022-10-11T00:47:09.622Z,101678.84
2022-10-11T00:49:41.137Z,101683.00
2022-10-11T00:52:15.296Z,101682.75
2022-10-11T00:54:46.463Z,101690.69
2022-10-11T00:57:21.061Z,101688.44
2022-10-11T00:59:52.761Z,101685.22
2022-10-11T01:02:26.283Z,101686.00
2022-10-11T01:05:28.168Z,101687.66
2022-10-11T01:07:57.502Z,101685.09
2022-10-11T01:10:27.160Z,101690.34
2022-10-11T01:13:05.630Z,101696.38
2022-10-11T01:15:38.429Z,101697.13
2022-10-11T01:18:16.815Z,101692.13
2022-10-11T01:20:56.559Z,101693.22
2022-10-11T01:23:48.600Z,101698.94
2022-10-11T01:26:34.626Z,101690.34
2022-10-11T01:29:12.143Z,101697.03
2022-10-11T01:31:49.747Z,101696.59
2022-10-11T01:34:25.005Z,101701.28
2022-10-11T01:37:01.117Z,101704.72
2022-10-11T01:39:35.177Z,101702.84
2022-10-11T01:42:06.934Z,101700.84
2022-10-11T01:44:37.462Z,101710.31
2022-10-11T01:47:09.633Z,101704.88
2022-10-11T01:49:38.995Z,101708.31
2022-10-11T01:52:09.362Z,101712.44
2022-10-11T01:55:09.288Z,101709.75
2022-10-11T01:57:49.894Z,101713.78
2022-10-11T02:00:21.577Z,101713.34
2022-10-11T02:03:01.543Z,101711.34
2022-10-11T02:05:36.605Z,101718.00
2022-10-11T02:08:11.441Z,101719.47
2022-10-11T02:10:42.925Z,101721.91
2022-10-11T02:13:15.587Z,101721.91
2022-10-11T02:15:45.858Z,101727.59
2022-10-11T02:18:19.797Z,101734.25
2022-10-11T02:20:49.984Z,101731.63
2022-10-11T02:23:25.257Z,101737.41
2022-10-11T02:25:55.417Z,101736.50
2022-10-11T02:28:28.239Z,101737.28
2022-10-11T02:31:00.051Z,101744.97
2022-10-11T02:33:36.098Z,101740.75
2022-10-11T02:36:10.982Z,101736.50
2022-10-11T02:38:43.070Z,101736.38
2022-10-11T02:41:15.538Z,101739.59
2022-10-11T02:43:49.170Z,101742.94
2022-10-11T02:46:18.889Z,101740.03
2022-10-11T02:48:51.103Z,101740.16
2022-10-11T02:51:20.838Z,101743.50
2022-10-11T02:53:50.223Z,101746.94
2022-10-11T02:56:19.615Z,101743.38
2022-10-11T02:58:49.109Z,101753.41
2022-10-11T03:01:18.644Z,101751.41
2022-10-11T03:03:50.780Z,101757.97
2022-10-11T03:06:20.181Z,101762.44
2022-10-11T03:08:49.570Z,101760.09
2022-10-11T03:11:18.972Z,101764.09
2022-10-11T03:13:48.382Z,101765.75
2022-10-11T03:16:17.770Z,101769.00
2022-10-11T03:18:49.725Z,101770.13
2022-10-11T03:21:19.112Z,101772.91
2022-10-11T03:23:48.499Z,101781.59
2022-10-11T03:26:17.885Z,101781.72
2022-10-11T03:28:47.390Z,101801.44
2022-10-11T03:31:18.589Z,101809.91
2022-10-11T03:33:50.581Z,101812.72
2022-10-11T03:36:20.149Z,101812.28
2022-10-11T03:38:49.546Z,101810.97
2022-10-11T03:41:18.942Z,101805.31
2022-10-11T03:43:48.341Z,101799.59
2022-10-11T03:46:18.093Z,101791.38
2022-10-11T03:48:50.845Z,101799.28
2022-10-11T03:51:20.238Z,101800.06
2022-10-11T03:53:49.623Z,101794.06
2022-10-11T03:56:19.012Z,101798.28
2022-10-11T03:58:48.381Z,101798.94
2022-10-11T04:01:17.861Z,101803.41
2022-10-11T04:03:49.890Z,101796.25
2022-10-11T04:06:19.261Z,101798.72
2022-10-11T04:08:48.637Z,101810.44
2022-10-11T04:11:18.030Z,101811.19
2022-10-11T04:13:47.419Z,101811.09
2022-10-11T04:16:16.800Z,101810.97
2022-10-11T04:18:46.302Z,101815.84
2022-10-11T04:21:18.273Z,101817.41
2022-10-11T04:23:47.642Z,101822.41
2022-10-11T04:26:17.063Z,101829.22
2022-10-11T04:28:46.514Z,101829.22
2022-10-11T04:31:15.966Z,101835.78
2022-10-11T04:33:45.350Z,101837.44
2022-10-11T04:36:14.741Z,101851.81
2022-10-11T04:38:46.770Z,101839.88
2022-10-11T04:41:17.130Z,101847.88
2022-10-11T04:43:46.718Z,101840.06
2022-10-11T04:46:16.139Z,101845.97
2022-10-11T04:48:45.546Z,101850.09
2022-10-11T04:51:14.941Z,101855.88
2022-10-11T04:53:46.987Z,101856.53
2022-10-11T04:56:18.491Z,101857.19
2022-10-11T04:58:49.508Z,101866.66
2022-10-11T05:01:18.969Z,101877.22
2022-10-11T05:03:48.377Z,101882.94
2022-10-11T05:06:17.846Z,101881.16
2022-10-11T05:08:49.838Z,101888.63
2022-10-11T05:11:20.302Z,101882.72
2022-10-11T05:13:49.711Z,101893.75
2022-10-11T05:16:19.140Z,101896.97
2022-10-11T05:18:48.509Z,101896.06
2022-10-11T05:21:20.324Z,101897.25
2022-10-11T05:23:53.097Z,101905.59
2022-10-11T05:26:23.626Z,101909.03
2022-10-11T05:28:53.098Z,101913.16
2022-10-11T05:31:23.309Z,101915.44
2022-10-11T05:33:52.845Z,101919.56
2022-10-11T05:36:22.370Z,101919.97
2022-10-11T05:38:54.369Z,101932.66
2022-10-11T05:41:23.797Z,101936.13
2022-10-11T05:43:53.190Z,101941.97
2022-10-11T05:46:22.587Z,101941.75
2022-10-11T05:48:51.985Z,101955.69
2022-10-11T05:51:21.450Z,101952.13
2022-10-11T05:53:50.812Z,101955.06
2022-10-11T05:56:25.140Z,101951.72
2022-10-11T05:58:58.776Z,101955.28
2022-10-11T06:01:31.549Z,101955.94
2022-10-11T06:04:01.057Z,101962.09
2022-10-11T06:06:30.418Z,101964.53
2022-10-11T06:08:59.809Z,101954.91
2022-10-11T06:11:31.749Z,101966.06
2022-10-11T06:14:01.231Z,101968.50
2022-10-11T06:16:30.620Z,101966.94
2022-10-11T06:19:00.557Z,101970.28
2022-10-11T06:21:29.990Z,101982.97
2022-10-11T06:24:01.828Z,101981.94
2022-10-11T06:26:33.886Z,101992.31
2022-10-11T06:29:03.399Z,101995.03
2022-10-11T06:31:32.818Z,102000.38
2022-10-11T06:34:02.313Z,101993.69
2022-10-11T06:36:31.687Z,101997.03
2022-10-11T06:39:01.799Z,102007.78
2022-10-11T06:41:34.709Z,102004.72
2022-10-11T06:44:04.080Z,102004.06
2022-10-11T06:46:34.428Z,102006.75
2022-10-11T06:49:03.809Z,102006.56
2022-10-11T06:51:35.314Z,102000.03
2022-10-11T06:54:05.324Z,102004.03
2022-10-11T06:56:37.385Z,102004.28
2022-10-11T06:59:06.752Z,102001.19
2022-10-11T07:01:36.183Z,102011.03
2022-10-11T07:04:05.674Z,102011.41
2022-10-11T07:06:35.094Z,102008.66
2022-10-11T07:09:04.466Z,102007.38
2022-10-11T07:11:33.858Z,102014.00
2022-10-11T07:14:08.556Z,102017.69
2022-10-11T07:16:38.514Z,102024.22
2022-10-11T07:19:09.409Z,102025.13
2022-10-11T07:21:39.046Z,102031.00
2022-10-11T07:24:09.269Z,102027.47
2022-10-11T07:26:39.317Z,102027.94
2022-10-11T07:29:12.128Z,102024.41
2022-10-11T07:31:43.039Z,102030.25
2022-10-11T07:34:13.173Z,102038.09
2022-10-11T07:36:42.549Z,102042.66
2022-10-11T07:39:11.935Z,102058.00
2022-10-11T07:41:45.856Z,102064.06
2022-10-11T07:44:18.148Z,102072.56
2022-10-11T07:46:47.541Z,102076.38
2022-10-11T07:49:16.895Z,102081.97
2022-10-11T07:51:46.751Z,102097.59
2022-10-11T07:54:16.173Z,102101.78
2022-10-11T07:56:45.577Z,102110.03
2022-10-11T07:59:14.948Z,102115.88
2022-10-11T08:01:47.043Z,102132.09
2022-10-11T08:04:16.574Z,102138.59
2022-10-11T08:06:48.643Z,102147.88
2022-10-11T08:09:21.813Z,102150.31
2022-10-11T08:11:51.206Z,102156.25
2022-10-11T08:14:20.754Z,102162.53
2022-10-11T08:16:52.775Z,102164.31
2022-10-11T08:19:22.166Z,102172.56
2022-10-11T08:21:51.549Z,102176.38
2022-10-11T08:24:21.678Z,102181.97
2022-10-11T08:26:51.498Z,102181.97
2022-10-11T08:29:21.473Z,102181.31
2022-10-11T08:31:53.434Z,102183.72
2022-10-11T08:34:22.908Z,102185.41
2022-10-11T08:36:52.302Z,102184.47
2022-10-11T08:39:21.714Z,102190.84
2022-10-11T08:41:52.690Z,102189.06
2022-10-11T08:44:58.743Z,102188.34
2022-10-11T08:47:33.596Z,102198.50
2022-10-11T08:50:03.338Z,102197.69
2022-10-11T08:52:37.550Z,102205.50
2022-10-11T08:55:08.848Z,102203.81
2022-10-11T08:57:40.174Z,102207.03
2022-10-11T09:00:11.385Z,102208.34
2022-10-11T09:03:07.543Z,102209.88
2022-10-11T09:05:38.494Z,102214.16
2022-10-11T09:08:13.604Z,102216.19
2022-10-11T09:11:00.617Z,102217.97
2022-10-11T09:13:44.684Z,102216.59
2022-10-11T09:16:20.970Z,102222.28
2022-10-11T09:19:06.480Z,102222.38
2022-10-11T09:21:39.974Z,102226.59
2022-10-11T09:24:23.942Z,102229.75
2022-10-11T09:26:59.432Z,102232.06
2022-10-11T09:29:42.493Z,102233.94
2022-10-11T09:32:18.188Z,102231.56
2022-10-11T09:34:51.474Z,102232.34
2022-10-11T09:37:26.910Z,102238.28
2022-10-11T09:39:59.868Z,102236.59
2022-10-11T09:42:29.275Z,102229.53
2022-10-11T09:45:00.169Z,102235.84
2022-10-11T09:47:31.763Z,102242.22
2022-10-11T09:50:06.558Z,102238.59
2022-10-11T09:52:36.410Z,102236.97
2022-10-11T09:55:06.981Z,102232.75
2022-10-11T09:57:38.906Z,102236.09
2022-10-11T10:00:21.378Z,102241.88
2022-10-11T10:02:52.112Z,102240.47
2022-10-11T10:05:25.810Z,102253.81
2022-10-11T10:08:08.161Z,102257.59
2022-10-11T10:10:42.693Z,102266.16
2022-10-11T10:13:22.710Z,102261.00
2022-10-11T10:15:53.920Z,102261.59
2022-10-11T10:18:25.259Z,102260.06
2022-10-11T10:20:59.510Z,102257.84
2022-10-11T10:23:31.057Z,102255.00
2022-10-11T10:26:15.722Z,102254.97
2022-10-11T10:29:01.619Z,102258.44
2022-10-11T10:32:01.588Z,102253.31
2022-10-11T10:34:30.544Z,102256.06
2022-10-11T10:37:07.142Z,102259.25
2022-10-11T10:39:40.061Z,102271.19
2022-10-11T10:42:15.797Z,102263.72
2022-10-11T10:44:45.625Z,102271.31
2022-10-11T10:47:20.934Z,102265.16
2022-10-11T10:49:57.355Z,102259.78
2022-10-11T10:52:45.870Z,102268.31
2022-10-11T10:55:23.329Z,102258.38
2022-10-11T10:58:05.351Z,102264.72
2022-10-11T11:00:42.034Z,102260.66
2022-10-11T11:03:18.446Z,102268.63
2022-10-11T11:05:51.375Z,102264.16
2022-10-11T11:08:34.640Z,102268.00
2022-10-11T11:11:09.066Z,102269.78
2022-10-11T11:13:43.650Z,102268.06
2022-10-11T11:16:16.503Z,102276.19
2022-10-11T11:18:50.206Z,102279.69
2022-10-11T11:21:28.138Z,102279.19
2022-10-11T11:24:06.837Z,102278.88
2022-10-11T11:26:44.406Z,102279.94
2022-10-11T11:29:22.508Z,102284.38
2022-10-11T11:32:18.314Z,102289.38
2022-10-11T11:34:49.947Z,102288.13
2022-10-11T11:37:26.054Z,102295.47
2022-10-11T11:40:00.535Z,102298.91
2022-10-11T11:42:35.463Z,102288.16
2022-10-11T11:45:08.406Z,102297.00
2022-10-11T11:47:40.670Z,102300.03
2022-10-11T11:50:22.620Z,102300.00
2022-10-11T11:52:54.902Z,102306.19
2022-10-11T11:55:32.371Z,102304.06
2022-10-11T11:58:10.495Z,102308.00
2022-10-11T12:00:49.082Z,102297.66
2022-10-11T12:03:21.828Z,102285.94
2022-10-11T12:06:21.157Z,102291.19
2022-10-11T12:08:52.165Z,102282.63
2022-10-11T12:11:31.681Z,102284.78
2022-10-11T12:14:04.724Z,102281.56
2022-10-11T12:16:34.137Z,102282.66
2022-10-11T12:19:04.905Z,102293.09
2022-10-11T12:21:35.788Z,102288.72
2022-10-11T12:24:13.745Z,102298.72
2022-10-11T12:26:47.188Z,102299.59
2022-10-11T12:29:47.965Z,102298.25
2022-10-11T12:32:51.243Z,102296.84
2022-10-11T12:35:42.854Z,102292.41
2022-10-11T12:38:22.491Z,102291.09
2022-10-11T12:40:54.308Z,102281.34
2022-10-11T12:43:36.250Z,102312.81
2022-10-11T12:46:35.966Z,102306.50
2022-10-11T12:49:15.202Z,102315.25
2022-10-11T12:51:54.191Z,102305.91
2022-10-11T12:54:46.971Z,102309.00
2022-10-11T12:57:47.426Z,102297.69
2022-10-11T13:00:29.923Z,102293.69
2022-10-11T13:02:59.881Z,102288.59
2022-10-11T13:05:32.105Z,102285.09
2022-10-11T13:08:05.929Z,102293.84
2022-10-11T13:10:40.734Z,102285.38
2022-10-11T13:13:17.657Z,102292.13
2022-10-11T13:15:51.446Z,102286.63
2022-10-11T13:18:21.501Z,102297.09
2022-10-11T13:20:50.952Z,102296.25
2022-10-11T13:23:24.699Z,102294.16
2022-10-11T13:25:55.102Z,102289.78
2022-10-11T13:28:25.032Z,102285.97
2022-10-11T13:30:58.259Z,102268.03
2022-10-11T13:33:32.238Z,102263.75
2022-10-11T13:36:02.658Z,102268.97
2022-10-11T13:38:35.165Z,102266.16
2022-10-11T13:41:06.959Z,102266.50
2022-10-11T13:43:37.259Z,102269.75
2022-10-11T13:46:10.211Z,102255.91
2022-10-11T13:48:42.597Z,102269.13
2022-10-11T13:51:16.900Z,102269.88
2022-10-11T13:53:59.851Z,102270.28
2022-10-11T13:56:30.471Z,102266.13
2022-10-11T13:59:00.314Z,102269.88
2022-10-11T14:01:39.404Z,102263.88
2022-10-11T14:04:10.967Z,102271.38
2022-10-11T14:06:47.694Z,102268.38
2022-10-11T14:09:20.711Z,102269.91
2022-10-11T14:11:50.505Z,102274.25
2022-10-11T14:14:43.995Z,102262.66
2022-10-11T14:17:19.176Z,102271.31
2022-10-11T14:20:11.411Z,102264.88
2022-10-11T14:22:41.337Z,102269.78
2022-10-11T14:25:10.897Z,102268.53
2022-10-11T14:27:42.587Z,102260.06
2022-10-11T14:30:27.361Z,102267.22
2022-10-11T14:33:01.973Z,102262.56
2022-10-11T14:35:33.365Z,102261.88
2022-10-11T14:38:02.787Z,102263.34
2022-10-11T14:40:33.647Z,102254.88
2022-10-11T14:43:03.023Z,102262.47
2022-10-11T14:45:32.422Z,102266.22
2022-10-11T14:48:04.561Z,102252.22
2022-10-11T14:50:38.640Z,102260.00
2022-10-11T14:53:08.929Z,102257.41
2022-10-11T14:55:38.918Z,102251.50
2022-10-11T14:58:08.965Z,102250.16
2022-10-11T15:00:39.024Z,102252.47
2022-10-11T15:03:11.077Z,102238.56
2022-10-11T15:05:40.979Z,102243.47
2022-10-11T15:08:10.557Z,102240.88
2022-10-11T15:10:41.647Z,102235.19
2022-10-11T15:13:11.713Z,102240.34
2022-10-11T15:15:42.158Z,102233.09
2022-10-11T15:18:17.498Z,102227.31
2022-10-11T15:20:48.040Z,102227.88
2022-10-11T15:23:17.445Z,102220.09
2022-10-11T15:25:46.822Z,102224.47
2022-10-11T15:28:29.502Z,102224.91
2022-10-11T15:30:59.331Z,102223.91
2022-10-11T15:33:31.290Z,102223.66
2022-10-11T15:36:00.674Z,102224.81
2022-10-11T15:38:30.067Z,102218.13
2022-10-11T15:40:59.507Z,102230.00
2022-10-11T15:43:29.468Z,102216.25
2022-10-11T15:46:00.075Z,102219.38
2022-10-11T15:48:33.082Z,102210.31
2022-10-11T15:51:02.489Z,102201.94
2022-10-11T15:53:32.713Z,102205.66
2022-10-11T15:56:05.077Z,102198.38
2022-10-11T15:58:36.105Z,102195.31
2022-10-11T16:01:09.402Z,102202.09
2022-10-11T16:03:41.829Z,102202.09
2022-10-11T16:06:12.478Z,102199.16
2022-10-11T16:08:42.302Z,102201.53
2022-10-11T16:11:12.439Z,102201.88
2022-10-11T16:13:41.941Z,102204.19
2022-10-11T16:16:12.403Z,102203.81
2022-10-11T16:18:44.445Z,102207.63
2022-10-11T16:21:16.887Z,102204.81
2022-10-11T16:23:46.276Z,102203.19
2022-10-11T16:26:16.725Z,102193.94
2022-10-11T16:28:47.620Z,102202.28
2022-10-11T16:31:20.645Z,102200.03
2022-10-11T16:33:53.290Z,102199.19
2022-10-11T16:36:40.640Z,102198.91
2022-10-11T16:39:14.437Z,102202.13
2022-10-11T16:41:44.165Z,102193.34
2022-10-11T16:44:15.250Z,102200.81
2022-10-11T16:46:47.723Z,102196.56
2022-10-11T16:49:22.431Z,102193.69
2022-10-11T16:51:52.081Z,102193.34
2022-10-11T16:54:22.454Z,102193.94
2022-10-11T16:56:52.410Z,102197.47
2022-10-11T16:59:21.863Z,102196.91
2022-10-11T17:01:51.391Z,102199.16
2022-10-11T17:04:23.841Z,102197.50
2022-10-11T17:06:55.042Z,102194.69
2022-10-11T17:09:24.618Z,102187.41
2022-10-11T17:11:54.305Z,102185.94
2022-10-11T17:14:24.255Z,102187.88
2022-10-11T17:16:53.630Z,102175.38
2022-10-11T17:19:25.655Z,102179.34
2022-10-11T17:21:55.058Z,102176.78
2022-10-11T17:24:24.542Z,102164.41
2022-10-11T17:26:53.975Z,102164.25
2022-10-11T17:29:24.154Z,102167.59
2022-10-11T17:31:54.146Z,102165.81
2022-10-11T17:34:26.110Z,102162.81
2022-10-11T17:36:55.525Z,102156.28
2022-10-11T17:39:26.550Z,102163.72
2022-10-11T17:41:56.326Z,102159.25
2022-10-11T17:44:25.718Z,102154.50
2022-10-11T17:46:55.133Z,102157.69
2022-10-11T17:49:27.075Z,102148.34
2022-10-11T17:51:56.745Z,102148.13
2022-10-11T17:54:26.431Z,102147.56
2022-10-11T17:56:55.867Z,102151.69
2022-10-11T17:59:27.491Z,102146.31
2022-10-11T18:01:57.391Z,102143.09
2022-10-11T18:04:30.240Z,102136.75
2022-10-11T18:06:59.654Z,102131.47
2022-10-11T18:09:29.331Z,102135.34
2022-10-11T18:11:58.728Z,102127.31
2022-10-11T18:14:28.092Z,102119.25
2022-10-11T18:16:57.449Z,102119.84
2022-10-11T18:19:29.406Z,102117.19
2022-10-11T18:22:01.010Z,102111.28
2022-10-11T18:24:33.870Z,102108.09
2022-10-11T18:27:03.386Z,102105.03
2022-10-11T18:29:32.778Z,102107.66
2022-10-11T18:32:02.172Z,102103.19
2022-10-11T18:34:34.174Z,102103.25
2022-10-11T18:37:03.622Z,102110.56
2022-10-11T18:39:33.018Z,102107.16
2022-10-11T18:42:04.666Z,102107.66
2022-10-11T18:44:34.554Z,102109.91
2022-10-11T18:47:03.953Z,102107.81
2022-10-11T18:49:36.077Z,102109.50
2022-10-11T18:52:05.523Z,102114.22
2022-10-11T18:54:35.125Z,102112.34
2022-10-11T18:57:04.570Z,102107.75
2022-10-11T18:59:33.989Z,102109.34
2022-10-11T19:02:04.202Z,102116.94
2022-10-11T19:04:36.199Z,102115.28
2022-10-11T19:07:05.597Z,102118.31
2022-10-11T19:09:35.022Z,102113.03
2022-10-11T19:12:04.422Z,102103.47
2022-10-11T19:14:33.849Z,102107.59
2022-10-11T19:17:03.219Z,102112.63
2022-10-11T19:19:33.331Z,102114.00
2022-10-11T19:22:05.929Z,102116.59
2022-10-11T19:24:35.646Z,102109.72
2022-10-11T19:27:05.037Z,102108.50
2022-10-11T19:29:34.851Z,102108.50
2022-10-11T19:32:05.447Z,102114.75
2022-10-11T19:34:34.909Z,102111.88
2022-10-11T19:37:07.749Z,102106.72
2022-10-11T19:39:37.300Z,102102.59
2022-10-11T19:42:06.922Z,102106.53
2022-10-11T19:44:39.761Z,102105.97
2022-10-11T19:47:10.126Z,102103.22
2022-10-11T19:49:39.574Z,102103.53
2022-10-11T19:52:13.317Z,102102.72
2022-10-11T19:54:42.754Z,102111.25
2022-10-11T19:57:12.131Z,102105.44
2022-10-11T19:59:41.561Z,102110.94
2022-10-11T20:02:12.205Z,102101.44
2022-10-11T20:04:57.235Z,102095.06
2022-10-11T20:07:29.236Z,102097.44
2022-10-11T20:09:58.660Z,102102.47
2022-10-11T20:12:29.468Z,102100.13
2022-10-11T20:14:59.102Z,102098.06
2022-10-11T20:17:48.131Z,102095.72
2022-10-11T20:20:17.940Z,102090.59
2022-10-11T20:22:49.928Z,102093.16
2022-10-11T20:25:19.431Z,102090.94
2022-10-11T20:27:48.819Z,102084.25
2022-10-11T20:30:18.314Z,102078.06
2022-10-11T20:32:47.686Z,102091.59
2022-10-11T20:35:17.163Z,102085.56
2022-10-11T20:37:46.545Z,102088.03
2022-10-11T20:40:19.118Z,102087.81
2022-10-11T20:42:48.495Z,102082.78
2022-10-11T20:45:17.934Z,102077.06
2022-10-11T20:47:47.309Z,102072.28
2022-10-11T20:50:22.166Z,102065.09
2022-10-11T20:52:52.432Z,102058.41
2022-10-11T20:55:24.630Z,102064.56
2022-10-11T20:57:54.103Z,102063.31
2022-10-11T21:00:23.543Z,102061.88
2022-10-11T21:02:53.335Z,102057.59
2022-10-11T21:05:22.770Z,102050.47
2022-10-11T21:07:53.208Z,102051.72
2022-10-11T21:10:25.179Z,102059.63
2022-10-11T21:12:54.603Z,102058.09
2022-10-11T21:15:24.126Z,102053.63
2022-10-11T21:17:54.427Z,102046.66
2022-10-11T21:20:23.822Z,102055.94
2022-10-11T21:22:53.513Z,102059.63
2022-10-11T21:25:25.634Z,102059.44
2022-10-11T21:27:55.043Z,102065.44
2022-10-11T21:30:24.443Z,102051.81
2022-10-11T21:32:57.297Z,102060.50
2022-10-11T21:35:26.706Z,102062.53
2022-10-11T21:37:57.214Z,102062.75
2022-10-11T21:40:29.414Z,102067.56
2022-10-11T21:42:58.858Z,102064.19
2022-10-11T21:45:28.326Z,102056.28
2022-10-11T21:47:57.708Z,102062.63
2022-10-11T21:50:27.105Z,102060.72
2022-10-11T21:52:56.475Z,102052.69
2022-10-11T21:55:25.872Z,102056.50
2022-10-11T21:57:58.157Z,102052.22
2022-10-11T22:00:27.633Z,102056.91
2022-10-11T22:02:57.172Z,102053.44
2022-10-11T22:05:26.561Z,102060.59
2022-10-11T22:07:55.950Z,102050.44
2022-10-11T22:10:25.339Z,102056.44
2022-10-11T22:12:57.335Z,102062.56
2022-10-11T22:15:26.726Z,102063.00
2022-10-11T22:17:56.107Z,102057.53
2022-10-11T22:20:25.491Z,102066.50
2022-10-11T22:22:54.902Z,102069.84
2022-10-11T22:25:24.311Z,102076.50
2022-10-11T22:27:53.710Z,102067.56
2022-10-11T22:30:25.690Z,102071.94
2022-10-11T22:32:55.118Z,102070.91
2022-10-11T22:35:24.534Z,102074.25
2022-10-11T22:37:54.102Z,102074.50
2022-10-11T22:40:23.734Z,102076.06
2022-10-11T22:42:53.102Z,102076.84
2022-10-11T22:45:25.078Z,102077.41
2022-10-11T22:47:54.468Z,102083.19
2022-10-11T22:50:24.058Z,102084.50
2022-10-11T22:52:53.464Z,102081.59
2022-10-11T22:55:22.974Z,102088.50
2022-10-11T22:57:52.351Z,102083.38
2022-10-11T23:00:21.853Z,102095.75
2022-10-11T23:02:53.831Z,102101.34
2022-10-11T23:05:23.268Z,102106.56
2022-10-11T23:07:52.692Z,102113.41
2022-10-11T23:10:22.150Z,102117.63
2022-10-11T23:12:51.578Z,102121.22
2022-10-11T23:15:21.225Z,102121.22
2022-10-11T23:17:53.210Z,102122.19
2022-10-11T23:20:22.607Z,102121.13
2022-10-11T23:22:51.997Z,102125.56
2022-10-11T23:25:21.396Z,102131.50
2022-10-11T23:27:50.805Z,102126.09
2022-10-11T23:30:20.371Z,102123.53
2022-10-11T23:32:49.782Z,102127.59
2022-10-11T23:35:21.821Z,102124.66
2022-10-11T23:37:51.223Z,102126.41
2022-10-11T23:40:20.622Z,102127.09
2022-10-11T23:42:50.046Z,102123.50
2022-10-11T23:45:19.529Z,102133.28
2022-10-11T23:47:48.894Z,102130.91
2022-10-11T23:50:20.945Z,102130.06
2022-10-11T23:52:50.357Z,102131.25
2022-10-11T23:55:19.855Z,102136.56
2022-10-11T23:57:49.222Z,102133.59
